ETD3AH OMAA-OLBA
Flight info
| Callsign | ETD3AH |
|---|---|
| Flight time | 2h 20m |
| Altitude | 34000 |
| Route | BOSEV N563 ALPOB L768 VATIM L550 ENABI/N0463F360 L550 NOVPA J981 DATOK L550 STEPA L78 DESPO R19 KUKLA |
| Aircraft | A320/M-SDE3FGHIRWY/LB1 |
Departure
| Time | 2026-05-06 12:01 |
|---|---|
| Airport | Zayed International Airport (OMAA) |
Arrival
| Time | 2026-05-06 14:22 |
|---|---|
| Airport | Beirut Rafic Hariri International Airport (OLBA) |
| Time | Latitude | Longitude | Altitude | Speed | Heading |
|---|---|---|---|---|---|
| 2026-05-06 11:41 | 24.43264 | 54.64065 | 76 ft | 0 kts | 217° |
| 2026-05-06 11:51 | 24.43267 | 54.64068 | 76 ft | 3 kts | 217° |
| 2026-05-06 11:51 | 24.43288 | 54.64086 | 64 ft | 4 kts | 218° |
| 2026-05-06 11:51 | 24.43310 | 54.64104 | 65 ft | 4 kts | 218° |
| 2026-05-06 11:51 | 24.43324 | 54.64116 | 70 ft | 4 kts | 218° |
| 2026-05-06 11:52 | 24.43341 | 54.64131 | 67 ft | 4 kts | 208° |
| 2026-05-06 11:52 | 24.43363 | 54.64137 | 69 ft | 4 kts | 149° |
| 2026-05-06 11:52 | 24.43379 | 54.64119 | 65 ft | 3 kts | 128° |
| 2026-05-06 11:52 | 24.43381 | 54.64116 | 71 ft | 0 kts | 128° |
| 2026-05-06 11:55 | 24.43369 | 54.64133 | 69 ft | 11 kts | 128° |
| 2026-05-06 11:55 | 24.43292 | 54.64244 | 70 ft | 16 kts | 124° |
| 2026-05-06 11:55 | 24.43323 | 54.64330 | 76 ft | 14 kts | 34° |
| 2026-05-06 11:55 | 24.43411 | 54.64403 | 70 ft | 17 kts | 40° |
| 2026-05-06 11:56 | 24.43437 | 54.64526 | 73 ft | 18 kts | 112° |
| 2026-05-06 11:56 | 24.43357 | 54.64644 | 72 ft | 23 kts | 129° |
| 2026-05-06 11:56 | 24.43257 | 54.64784 | 76 ft | 24 kts | 128° |
| 2026-05-06 11:56 | 24.43156 | 54.64929 | 76 ft | 24 kts | 129° |
| 2026-05-06 11:57 | 24.43054 | 54.65073 | 76 ft | 24 kts | 128° |
| 2026-05-06 11:57 | 24.42947 | 54.65221 | 68 ft | 25 kts | 128° |
| 2026-05-06 11:57 | 24.42839 | 54.65374 | 76 ft | 24 kts | 127° |
| 2026-05-06 11:57 | 24.42736 | 54.65520 | 73 ft | 24 kts | 128° |
| 2026-05-06 11:58 | 24.42631 | 54.65668 | 72 ft | 25 kts | 128° |
| 2026-05-06 11:58 | 24.42522 | 54.65819 | 76 ft | 25 kts | 128° |
| 2026-05-06 11:58 | 24.42423 | 54.65960 | 74 ft | 22 kts | 128° |
| 2026-05-06 11:58 | 24.42328 | 54.66093 | 73 ft | 22 kts | 128° |
| 2026-05-06 11:59 | 24.42232 | 54.66230 | 73 ft | 23 kts | 128° |
| 2026-05-06 11:59 | 24.42135 | 54.66366 | 69 ft | 21 kts | 128° |
| 2026-05-06 11:59 | 24.42048 | 54.66488 | 72 ft | 18 kts | 124° |
| 2026-05-06 11:59 | 24.42058 | 54.66605 | 74 ft | 15 kts | 52° |
| 2026-05-06 12:00 | 24.42142 | 54.66679 | 74 ft | 13 kts | 37° |
| 2026-05-06 12:00 | 24.42200 | 54.66675 | 74 ft | 9 kts | 312° |
| 2026-05-06 12:00 | 24.42283 | 54.66559 | 75 ft | 46 kts | 308° |
| 2026-05-06 12:00 | 24.42605 | 54.66107 | 76 ft | 102 kts | 308° |
| 2026-05-06 12:01 | 24.43131 | 54.65365 | 75 ft | 146 kts | 308° |
| 2026-05-06 12:01 | 24.43830 | 54.64395 | 255 ft | 169 kts | 310° |
| 2026-05-06 12:01 | 24.44579 | 54.63355 | 708 ft | 179 kts | 309° |
| 2026-05-06 12:01 | 24.45364 | 54.62243 | 1115 ft | 187 kts | 307° |
| 2026-05-06 12:02 | 24.46162 | 54.61111 | 1685 ft | 188 kts | 307° |
| 2026-05-06 12:02 | 24.46968 | 54.59970 | 1959 ft | 195 kts | 307° |
| 2026-05-06 12:02 | 24.47831 | 54.58757 | 2090 ft | 209 kts | 307° |
| 2026-05-06 12:02 | 24.48761 | 54.57455 | 2217 ft | 225 kts | 307° |
| 2026-05-06 12:03 | 24.49770 | 54.56035 | 2319 ft | 246 kts | 307° |
| 2026-05-06 12:03 | 24.50864 | 54.54489 | 2485 ft | 267 kts | 307° |
| 2026-05-06 12:03 | 24.52027 | 54.52845 | 2940 ft | 276 kts | 307° |
| 2026-05-06 12:03 | 24.53223 | 54.51159 | 3469 ft | 282 kts | 307° |
| 2026-05-06 12:04 | 24.54435 | 54.49455 | 4050 ft | 285 kts | 308° |
| 2026-05-06 12:04 | 24.55667 | 54.47725 | 4606 ft | 289 kts | 309° |
| 2026-05-06 12:04 | 24.56915 | 54.45972 | 5183 ft | 292 kts | 309° |
| 2026-05-06 12:04 | 24.58164 | 54.44208 | 5795 ft | 293 kts | 309° |
| 2026-05-06 12:05 | 24.59420 | 54.42432 | 6401 ft | 295 kts | 309° |
| 2026-05-06 12:05 | 24.60680 | 54.40648 | 7019 ft | 295 kts | 309° |
| 2026-05-06 12:05 | 24.61938 | 54.38868 | 7656 ft | 295 kts | 309° |
| 2026-05-06 12:05 | 24.63201 | 54.37083 | 8273 ft | 296 kts | 309° |
| 2026-05-06 12:06 | 24.64472 | 54.35290 | 8882 ft | 298 kts | 309° |
| 2026-05-06 12:06 | 24.65749 | 54.33486 | 9492 ft | 300 kts | 309° |
| 2026-05-06 12:06 | 24.67031 | 54.31672 | 10056 ft | 302 kts | 309° |
| 2026-05-06 12:06 | 24.68345 | 54.29816 | 10204 ft | 320 kts | 309° |
| 2026-05-06 12:07 | 24.69753 | 54.27831 | 10327 ft | 337 kts | 310° |
| 2026-05-06 12:07 | 24.71229 | 54.25748 | 10445 ft | 353 kts | 309° |
| 2026-05-06 12:07 | 24.72770 | 54.23568 | 10563 ft | 368 kts | 310° |
| 2026-05-06 12:07 | 24.74371 | 54.21297 | 10681 ft | 382 kts | 310° |
| 2026-05-06 12:08 | 24.76012 | 54.18963 | 10981 ft | 389 kts | 309° |
| 2026-05-06 12:08 | 24.77679 | 54.16594 | 11397 ft | 393 kts | 309° |
| 2026-05-06 12:08 | 24.79358 | 54.14210 | 11845 ft | 395 kts | 309° |
| 2026-05-06 12:08 | 24.81045 | 54.11815 | 12290 ft | 398 kts | 309° |
| 2026-05-06 12:09 | 24.82749 | 54.09394 | 12751 ft | 401 kts | 309° |
| 2026-05-06 12:09 | 24.84360 | 54.06880 | 13202 ft | 404 kts | 303° |
| 2026-05-06 12:09 | 24.85840 | 54.04235 | 13643 ft | 407 kts | 303° |
| 2026-05-06 12:09 | 24.87330 | 54.01568 | 14053 ft | 410 kts | 303° |
| 2026-05-06 12:10 | 24.88831 | 53.98888 | 14497 ft | 412 kts | 303° |
| 2026-05-06 12:10 | 24.90335 | 53.96199 | 14974 ft | 413 kts | 303° |
| 2026-05-06 12:10 | 24.91828 | 53.93537 | 15403 ft | 416 kts | 303° |
| 2026-05-06 12:10 | 24.93352 | 53.90817 | 15844 ft | 418 kts | 302° |
| 2026-05-06 12:11 | 24.94885 | 53.88077 | 16280 ft | 421 kts | 302° |
| 2026-05-06 12:11 | 24.96425 | 53.85326 | 16692 ft | 424 kts | 302° |
| 2026-05-06 12:11 | 24.97978 | 53.82549 | 17087 ft | 427 kts | 302° |
| 2026-05-06 12:11 | 24.99541 | 53.79751 | 17516 ft | 429 kts | 302° |
| 2026-05-06 12:12 | 25.01128 | 53.76952 | 17916 ft | 432 kts | 304° |
| 2026-05-06 12:12 | 25.03035 | 53.74376 | 18273 ft | 435 kts | 314° |
| 2026-05-06 12:12 | 25.05205 | 53.72038 | 18610 ft | 438 kts | 315° |
| 2026-05-06 12:12 | 25.07389 | 53.69701 | 19016 ft | 437 kts | 315° |
| 2026-05-06 12:13 | 25.09571 | 53.67367 | 19431 ft | 437 kts | 315° |
| 2026-05-06 12:13 | 25.11755 | 53.65029 | 19827 ft | 437 kts | 315° |
| 2026-05-06 12:13 | 25.13939 | 53.62687 | 20192 ft | 438 kts | 315° |
| 2026-05-06 12:13 | 25.16126 | 53.60336 | 20528 ft | 440 kts | 315° |
| 2026-05-06 12:14 | 25.18320 | 53.57974 | 20844 ft | 442 kts | 315° |
| 2026-05-06 12:14 | 25.20526 | 53.55601 | 21155 ft | 443 kts | 315° |
| 2026-05-06 12:14 | 25.22738 | 53.53225 | 21467 ft | 445 kts | 315° |
| 2026-05-06 12:14 | 25.24959 | 53.50842 | 21770 ft | 446 kts | 314° |
| 2026-05-06 12:15 | 25.27181 | 53.48452 | 22090 ft | 446 kts | 314° |
| 2026-05-06 12:15 | 25.29405 | 53.46052 | 22396 ft | 447 kts | 314° |
| 2026-05-06 12:15 | 25.31634 | 53.43647 | 22676 ft | 448 kts | 314° |
| 2026-05-06 12:15 | 25.33867 | 53.41237 | 22956 ft | 449 kts | 314° |
| 2026-05-06 12:16 | 25.36104 | 53.38819 | 23258 ft | 449 kts | 314° |
| 2026-05-06 12:16 | 25.38335 | 53.36411 | 23602 ft | 447 kts | 314° |
| 2026-05-06 12:16 | 25.40531 | 53.34040 | 23913 ft | 446 kts | 314° |
| 2026-05-06 12:16 | 25.42749 | 53.31648 | 24217 ft | 445 kts | 314° |
| 2026-05-06 12:17 | 25.44966 | 53.29262 | 24533 ft | 444 kts | 314° |
| 2026-05-06 12:17 | 25.47175 | 53.26878 | 24859 ft | 443 kts | 313° |
| 2026-05-06 12:17 | 25.49379 | 53.24496 | 25192 ft | 442 kts | 313° |
| 2026-05-06 12:17 | 25.51574 | 53.22117 | 25525 ft | 441 kts | 313° |
| 2026-05-06 12:18 | 25.53765 | 53.19740 | 25873 ft | 440 kts | 313° |
| 2026-05-06 12:18 | 25.55949 | 53.17369 | 26216 ft | 439 kts | 312° |
| 2026-05-06 12:18 | 25.58132 | 53.14999 | 26563 ft | 438 kts | 312° |
| 2026-05-06 12:18 | 25.60304 | 53.12636 | 26903 ft | 437 kts | 312° |
| 2026-05-06 12:19 | 25.62472 | 53.10277 | 27252 ft | 436 kts | 311° |
| 2026-05-06 12:19 | 25.64632 | 53.07924 | 27624 ft | 435 kts | 311° |
| 2026-05-06 12:19 | 25.66788 | 53.05575 | 28007 ft | 433 kts | 311° |
| 2026-05-06 12:19 | 25.68929 | 53.03224 | 28389 ft | 431 kts | 309° |
| 2026-05-06 12:20 | 25.70796 | 53.00657 | 28758 ft | 425 kts | 299° |
| 2026-05-06 12:20 | 25.72240 | 52.97877 | 29104 ft | 421 kts | 294° |
| 2026-05-06 12:20 | 25.73593 | 52.95005 | 29488 ft | 420 kts | 293° |
| 2026-05-06 12:20 | 25.74944 | 52.92142 | 29875 ft | 418 kts | 293° |
| 2026-05-06 12:21 | 25.76292 | 52.89290 | 30204 ft | 416 kts | 293° |
| 2026-05-06 12:21 | 25.77635 | 52.86453 | 30538 ft | 415 kts | 293° |
| 2026-05-06 12:21 | 25.78978 | 52.83619 | 30869 ft | 413 kts | 293° |
| 2026-05-06 12:21 | 25.80311 | 52.80802 | 31203 ft | 412 kts | 293° |
| 2026-05-06 12:22 | 25.81639 | 52.77992 | 31535 ft | 410 kts | 293° |
| 2026-05-06 12:22 | 25.82959 | 52.75191 | 31872 ft | 409 kts | 293° |
| 2026-05-06 12:22 | 25.84273 | 52.72394 | 32188 ft | 408 kts | 293° |
| 2026-05-06 12:22 | 25.85586 | 52.69596 | 32515 ft | 407 kts | 293° |
| 2026-05-06 12:23 | 25.86891 | 52.66813 | 32842 ft | 405 kts | 293° |
| 2026-05-06 12:23 | 25.88190 | 52.64041 | 33176 ft | 404 kts | 293° |
| 2026-05-06 12:23 | 25.89483 | 52.61280 | 33489 ft | 402 kts | 293° |
| 2026-05-06 12:23 | 25.90745 | 52.58554 | 33741 ft | 402 kts | 292° |
| 2026-05-06 12:24 | 25.93230 | 52.52946 | 33800 ft | 410 kts | 291° |
| 2026-05-06 12:24 | 25.95743 | 52.47157 | 33801 ft | 421 kts | 291° |
| 2026-05-06 12:25 | 25.98324 | 52.41271 | 33802 ft | 424 kts | 292° |
| 2026-05-06 12:25 | 26.00934 | 52.35384 | 33802 ft | 425 kts | 292° |
| 2026-05-06 12:26 | 26.03570 | 52.29509 | 33805 ft | 425 kts | 292° |
| 2026-05-06 12:26 | 26.06207 | 52.23625 | 33803 ft | 425 kts | 292° |
| 2026-05-06 12:27 | 26.08834 | 52.17727 | 33807 ft | 426 kts | 292° |
| 2026-05-06 12:27 | 26.11442 | 52.11853 | 33826 ft | 425 kts | 291° |
| 2026-05-06 12:28 | 26.16577 | 52.00264 | 33824 ft | 424 kts | 291° |
| 2026-05-06 12:28 | 26.21840 | 51.88499 | 33821 ft | 424 kts | 291° |
| 2026-05-06 12:29 | 26.27039 | 51.76692 | 33836 ft | 423 kts | 291° |
| 2026-05-06 12:29 | 26.32289 | 51.64965 | 33833 ft | 422 kts | 291° |
| 2026-05-06 12:30 | 26.37469 | 51.53293 | 33826 ft | 422 kts | 290° |
| 2026-05-06 12:30 | 26.41461 | 51.41123 | 33836 ft | 418 kts | 284° |
| 2026-05-06 12:31 | 26.45368 | 51.28896 | 33836 ft | 418 kts | 284° |
| 2026-05-06 12:31 | 26.49277 | 51.16673 | 33833 ft | 418 kts | 284° |
| 2026-05-06 12:32 | 26.53178 | 51.04418 | 33849 ft | 418 kts | 284° |
| 2026-05-06 12:32 | 26.57048 | 50.92196 | 33847 ft | 417 kts | 284° |
| 2026-05-06 12:33 | 26.60864 | 50.79946 | 33842 ft | 417 kts | 284° |
| 2026-05-06 12:33 | 26.64610 | 50.67785 | 33857 ft | 416 kts | 283° |
| 2026-05-06 12:34 | 26.68247 | 50.55506 | 33855 ft | 415 kts | 282° |
| 2026-05-06 12:34 | 26.71760 | 50.43186 | 33852 ft | 414 kts | 281° |
| 2026-05-06 12:35 | 26.74861 | 50.30798 | 33871 ft | 413 kts | 280° |
| 2026-05-06 12:35 | 26.78302 | 50.18520 | 33863 ft | 414 kts | 283° |
| 2026-05-06 12:36 | 26.82035 | 50.06315 | 33872 ft | 413 kts | 282° |
| 2026-05-06 12:36 | 26.85653 | 49.94107 | 33882 ft | 413 kts | 282° |
| 2026-05-06 12:37 | 26.89262 | 49.81898 | 33870 ft | 412 kts | 282° |
| 2026-05-06 12:37 | 26.92823 | 49.69785 | 33865 ft | 412 kts | 282° |
| 2026-05-06 12:38 | 26.96420 | 49.57576 | 33878 ft | 412 kts | 281° |
| 2026-05-06 12:38 | 26.99975 | 49.45390 | 33876 ft | 411 kts | 281° |
| 2026-05-06 12:39 | 27.02091 | 49.39388 | 33857 ft | 422 kts | 292° |
| 2026-05-06 12:39 | 27.04993 | 49.33669 | 33870 ft | 422 kts | 291° |
| 2026-05-06 12:39 | 27.10776 | 49.22194 | 33874 ft | 422 kts | 291° |
| 2026-05-06 12:40 | 27.15572 | 49.12641 | 33874 ft | 422 kts | 291° |
| 2026-05-06 12:40 | 27.21327 | 49.01135 | 33891 ft | 423 kts | 291° |
| 2026-05-06 12:41 | 27.27087 | 48.89579 | 33887 ft | 423 kts | 291° |
| 2026-05-06 12:41 | 27.32826 | 48.78043 | 33907 ft | 423 kts | 291° |
| 2026-05-06 12:42 | 27.38533 | 48.66556 | 33900 ft | 422 kts | 290° |
| 2026-05-06 12:42 | 27.44253 | 48.55008 | 33898 ft | 422 kts | 290° |
| 2026-05-06 12:43 | 27.49935 | 48.43444 | 33903 ft | 422 kts | 290° |
| 2026-05-06 12:43 | 27.55639 | 48.31883 | 33891 ft | 422 kts | 290° |
| 2026-05-06 12:44 | 27.61334 | 48.20307 | 33904 ft | 422 kts | 290° |
| 2026-05-06 12:44 | 27.67020 | 48.08717 | 33896 ft | 422 kts | 290° |
| 2026-05-06 12:45 | 27.72679 | 47.97118 | 33917 ft | 422 kts | 290° |
| 2026-05-06 12:46 | 27.81142 | 47.79732 | 33918 ft | 421 kts | 290° |
| 2026-05-06 12:46 | 27.85957 | 47.67872 | 33918 ft | 410 kts | 281° |
| 2026-05-06 12:47 | 27.89722 | 47.55699 | 33921 ft | 410 kts | 281° |
| 2026-05-06 12:47 | 27.93492 | 47.43507 | 33923 ft | 410 kts | 281° |
| 2026-05-06 12:48 | 27.97262 | 47.31329 | 33933 ft | 410 kts | 281° |
| 2026-05-06 12:48 | 28.00982 | 47.19205 | 33938 ft | 410 kts | 281° |
| 2026-05-06 12:49 | 28.04706 | 47.07018 | 33945 ft | 410 kts | 281° |
| 2026-05-06 12:49 | 28.08424 | 46.94820 | 33951 ft | 410 kts | 280° |
| 2026-05-06 12:50 | 28.12225 | 46.82633 | 33946 ft | 412 kts | 282° |
| 2026-05-06 12:50 | 28.16354 | 46.70497 | 33960 ft | 412 kts | 282° |
| 2026-05-06 12:51 | 28.20382 | 46.58365 | 33959 ft | 411 kts | 282° |
| 2026-05-06 12:51 | 28.24391 | 46.46222 | 33969 ft | 411 kts | 282° |
| 2026-05-06 12:52 | 28.28372 | 46.34156 | 33977 ft | 411 kts | 282° |
| 2026-05-06 12:52 | 28.32373 | 46.21983 | 33983 ft | 412 kts | 282° |
| 2026-05-06 12:53 | 28.36389 | 46.09796 | 33995 ft | 413 kts | 283° |
| 2026-05-06 12:53 | 28.40925 | 45.97749 | 33988 ft | 415 kts | 284° |
| 2026-05-06 12:54 | 28.45438 | 45.85688 | 33990 ft | 414 kts | 284° |
| 2026-05-06 12:54 | 28.49891 | 45.73600 | 33996 ft | 415 kts | 283° |
| 2026-05-06 12:55 | 28.54358 | 45.61495 | 34003 ft | 415 kts | 283° |
| 2026-05-06 12:55 | 28.58818 | 45.49367 | 33991 ft | 415 kts | 283° |
| 2026-05-06 12:56 | 28.63232 | 45.37302 | 34033 ft | 415 kts | 283° |
| 2026-05-06 12:56 | 28.67670 | 45.25162 | 34016 ft | 414 kts | 283° |
| 2026-05-06 12:57 | 28.72080 | 45.13033 | 34005 ft | 414 kts | 283° |
| 2026-05-06 12:57 | 28.76485 | 45.00907 | 34019 ft | 413 kts | 283° |
| 2026-05-06 12:58 | 28.80860 | 44.88788 | 34019 ft | 413 kts | 283° |
| 2026-05-06 12:58 | 28.85228 | 44.76672 | 34007 ft | 411 kts | 282° |
| 2026-05-06 12:58 | 28.86334 | 44.70528 | 34000 ft | 395 kts | 268° |
| 2026-05-06 12:59 | 28.86818 | 44.64268 | 34005 ft | 396 kts | 268° |
| 2026-05-06 12:59 | 28.87834 | 44.51742 | 34012 ft | 396 kts | 268° |
| 2026-05-06 13:00 | 28.88817 | 44.39222 | 34013 ft | 397 kts | 268° |
| 2026-05-06 13:00 | 28.89798 | 44.26665 | 34011 ft | 397 kts | 268° |
| 2026-05-06 13:01 | 28.90777 | 44.14102 | 34015 ft | 397 kts | 268° |
| 2026-05-06 13:01 | 28.91733 | 44.01534 | 34032 ft | 398 kts | 268° |
| 2026-05-06 13:02 | 28.92658 | 43.89036 | 34024 ft | 398 kts | 268° |
| 2026-05-06 13:02 | 28.93604 | 43.76451 | 34007 ft | 398 kts | 268° |
| 2026-05-06 13:03 | 28.94523 | 43.63831 | 34010 ft | 399 kts | 268° |
| 2026-05-06 13:03 | 28.95433 | 43.51206 | 34026 ft | 398 kts | 268° |
| 2026-05-06 13:04 | 28.96340 | 43.38604 | 34044 ft | 398 kts | 268° |
| 2026-05-06 13:04 | 28.97226 | 43.26037 | 34037 ft | 397 kts | 268° |
| 2026-05-06 13:05 | 28.98096 | 43.13457 | 34024 ft | 397 kts | 268° |
| 2026-05-06 13:05 | 28.98959 | 43.00866 | 34055 ft | 398 kts | 268° |
| 2026-05-06 13:06 | 28.99815 | 42.88283 | 34047 ft | 397 kts | 268° |
| 2026-05-06 13:06 | 29.00649 | 42.75692 | 34043 ft | 397 kts | 268° |
| 2026-05-06 13:07 | 29.01484 | 42.63108 | 34041 ft | 397 kts | 268° |
| 2026-05-06 13:07 | 29.02291 | 42.50520 | 34044 ft | 397 kts | 268° |
| 2026-05-06 13:08 | 29.03086 | 42.37987 | 34069 ft | 398 kts | 268° |
| 2026-05-06 13:08 | 29.03881 | 42.25383 | 34065 ft | 397 kts | 268° |
| 2026-05-06 13:09 | 29.04666 | 42.12773 | 34073 ft | 397 kts | 268° |
| 2026-05-06 13:09 | 29.05429 | 42.00179 | 34070 ft | 397 kts | 268° |
| 2026-05-06 13:10 | 29.06172 | 41.87568 | 34056 ft | 397 kts | 268° |
| 2026-05-06 13:10 | 29.06925 | 41.74947 | 34071 ft | 398 kts | 267° |
| 2026-05-06 13:11 | 29.07647 | 41.62307 | 34065 ft | 399 kts | 268° |
| 2026-05-06 13:11 | 29.08367 | 41.49652 | 34097 ft | 399 kts | 267° |
| 2026-05-06 13:12 | 29.09078 | 41.37006 | 34100 ft | 399 kts | 268° |
| 2026-05-06 13:12 | 29.09795 | 41.24339 | 34100 ft | 399 kts | 268° |
| 2026-05-06 13:13 | 29.10482 | 41.11687 | 34107 ft | 398 kts | 268° |
| 2026-05-06 13:13 | 29.11145 | 40.99119 | 34106 ft | 398 kts | 268° |
| 2026-05-06 13:14 | 29.11819 | 40.86466 | 34126 ft | 398 kts | 268° |
| 2026-05-06 13:14 | 29.12465 | 40.73826 | 34114 ft | 398 kts | 268° |
| 2026-05-06 13:15 | 29.13102 | 40.61185 | 34104 ft | 398 kts | 268° |
| 2026-05-06 13:15 | 29.12974 | 40.48615 | 34081 ft | 394 kts | 263° |
| 2026-05-06 13:16 | 29.12566 | 40.36070 | 34104 ft | 395 kts | 263° |
| 2026-05-06 13:16 | 29.12147 | 40.23520 | 34120 ft | 395 kts | 263° |
| 2026-05-06 13:17 | 29.11711 | 40.10927 | 34102 ft | 396 kts | 263° |
| 2026-05-06 13:17 | 29.11258 | 39.98311 | 34105 ft | 398 kts | 263° |
| 2026-05-06 13:18 | 29.10899 | 39.85645 | 34096 ft | 400 kts | 265° |
| 2026-05-06 13:18 | 29.11046 | 39.72900 | 34099 ft | 401 kts | 265° |
| 2026-05-06 13:19 | 29.11096 | 39.60120 | 34094 ft | 402 kts | 265° |
| 2026-05-06 13:19 | 29.11117 | 39.47326 | 34098 ft | 403 kts | 265° |
| 2026-05-06 13:20 | 29.11122 | 39.34580 | 34112 ft | 403 kts | 265° |
| 2026-05-06 13:20 | 29.11125 | 39.21747 | 34086 ft | 403 kts | 265° |
| 2026-05-06 13:21 | 29.11119 | 39.08905 | 34078 ft | 404 kts | 265° |
| 2026-05-06 13:21 | 29.11095 | 38.96044 | 34075 ft | 405 kts | 265° |
| 2026-05-06 13:22 | 29.11045 | 38.83154 | 34074 ft | 406 kts | 265° |
| 2026-05-06 13:22 | 29.10981 | 38.70232 | 34060 ft | 406 kts | 265° |
| 2026-05-06 13:23 | 29.10923 | 38.57299 | 34046 ft | 407 kts | 265° |
| 2026-05-06 13:23 | 29.10822 | 38.44334 | 34047 ft | 408 kts | 265° |
| 2026-05-06 13:24 | 29.10724 | 38.31359 | 34053 ft | 408 kts | 265° |
| 2026-05-06 13:24 | 29.10623 | 38.18446 | 34064 ft | 408 kts | 265° |
| 2026-05-06 13:25 | 29.10500 | 38.05444 | 34047 ft | 409 kts | 265° |
| 2026-05-06 13:25 | 29.10357 | 37.92424 | 34033 ft | 410 kts | 265° |
| 2026-05-06 13:26 | 29.10235 | 37.81504 | 34038 ft | 410 kts | 265° |
| 2026-05-06 13:26 | 29.10076 | 37.68546 | 34036 ft | 411 kts | 266° |
| 2026-05-06 13:27 | 29.09865 | 37.53247 | 34029 ft | 412 kts | 265° |
| 2026-05-06 13:27 | 29.09766 | 37.42355 | 34027 ft | 413 kts | 266° |
| 2026-05-06 13:28 | 29.09684 | 37.29224 | 34005 ft | 413 kts | 266° |
| 2026-05-06 13:28 | 29.09559 | 37.16070 | 34019 ft | 414 kts | 266° |
| 2026-05-06 13:29 | 29.09425 | 37.02910 | 34016 ft | 414 kts | 266° |
| 2026-05-06 13:29 | 29.09286 | 36.89766 | 34017 ft | 413 kts | 266° |
| 2026-05-06 13:30 | 29.09127 | 36.76621 | 34010 ft | 413 kts | 266° |
| 2026-05-06 13:30 | 29.08967 | 36.63495 | 33986 ft | 413 kts | 267° |
| 2026-05-06 13:31 | 29.08799 | 36.50439 | 33986 ft | 413 kts | 266° |
| 2026-05-06 13:31 | 29.08487 | 36.37288 | 33997 ft | 413 kts | 266° |
| 2026-05-06 13:32 | 29.08101 | 36.24149 | 34007 ft | 413 kts | 266° |
| 2026-05-06 13:32 | 29.07725 | 36.11050 | 34001 ft | 411 kts | 266° |
| 2026-05-06 13:33 | 29.07340 | 35.97998 | 33995 ft | 410 kts | 266° |
| 2026-05-06 13:33 | 29.06953 | 35.85049 | 33974 ft | 411 kts | 266° |
| 2026-05-06 13:34 | 29.06539 | 35.71988 | 33989 ft | 411 kts | 266° |
| 2026-05-06 13:34 | 29.06115 | 35.58910 | 34002 ft | 412 kts | 266° |
| 2026-05-06 13:35 | 29.05680 | 35.45819 | 33996 ft | 412 kts | 266° |
| 2026-05-06 13:35 | 29.05234 | 35.32713 | 34006 ft | 413 kts | 266° |
| 2026-05-06 13:36 | 29.04766 | 35.19569 | 33989 ft | 413 kts | 267° |
| 2026-05-06 13:36 | 29.04284 | 35.06428 | 33991 ft | 414 kts | 266° |
| 2026-05-06 13:37 | 29.03806 | 34.93359 | 33997 ft | 414 kts | 267° |
| 2026-05-06 13:37 | 29.03348 | 34.80202 | 33996 ft | 414 kts | 268° |
| 2026-05-06 13:38 | 29.05213 | 34.67408 | 33988 ft | 422 kts | 299° |
| 2026-05-06 13:38 | 29.09329 | 34.62517 | 33987 ft | 435 kts | 321° |
| 2026-05-06 13:38 | 29.14381 | 34.58678 | 33991 ft | 436 kts | 321° |
| 2026-05-06 13:39 | 29.24490 | 34.50962 | 34004 ft | 437 kts | 321° |
| 2026-05-06 13:39 | 29.34641 | 34.43245 | 34037 ft | 438 kts | 321° |
| 2026-05-06 13:40 | 29.44772 | 34.35509 | 34046 ft | 437 kts | 321° |
| 2026-05-06 13:40 | 29.54834 | 34.27818 | 34053 ft | 437 kts | 321° |
| 2026-05-06 13:41 | 29.65305 | 34.20517 | 34058 ft | 443 kts | 327° |
| 2026-05-06 13:41 | 29.76207 | 34.13892 | 34053 ft | 443 kts | 326° |
| 2026-05-06 13:42 | 29.87111 | 34.07237 | 34082 ft | 444 kts | 326° |
| 2026-05-06 13:42 | 29.98025 | 34.00556 | 34077 ft | 444 kts | 326° |
| 2026-05-06 13:43 | 30.08937 | 33.93874 | 34080 ft | 444 kts | 326° |
| 2026-05-06 13:43 | 30.19839 | 33.87179 | 34091 ft | 442 kts | 326° |
| 2026-05-06 13:44 | 30.30590 | 33.80555 | 34091 ft | 441 kts | 326° |
| 2026-05-06 13:44 | 30.41411 | 33.73864 | 34089 ft | 441 kts | 326° |
| 2026-05-06 13:45 | 30.52228 | 33.67173 | 34119 ft | 440 kts | 326° |
| 2026-05-06 13:45 | 30.68379 | 33.57132 | 34114 ft | 438 kts | 326° |
| 2026-05-06 13:46 | 30.79106 | 33.50452 | 34125 ft | 437 kts | 326° |
| 2026-05-06 13:46 | 30.89783 | 33.43780 | 34126 ft | 435 kts | 326° |
| 2026-05-06 13:47 | 31.00444 | 33.37104 | 34120 ft | 434 kts | 325° |
| 2026-05-06 13:47 | 31.11073 | 33.30422 | 34138 ft | 433 kts | 325° |
| 2026-05-06 13:48 | 31.21679 | 33.23752 | 34120 ft | 432 kts | 325° |
| 2026-05-06 13:48 | 31.32259 | 33.17070 | 34118 ft | 432 kts | 325° |
| 2026-05-06 13:49 | 31.37842 | 33.14514 | 34109 ft | 445 kts | 342° |
| 2026-05-06 13:49 | 31.44099 | 33.13914 | 34125 ft | 454 kts | 351° |
| 2026-05-06 13:49 | 31.56726 | 33.13272 | 34131 ft | 453 kts | 351° |
| 2026-05-06 13:50 | 31.69345 | 33.12626 | 34115 ft | 454 kts | 351° |
| 2026-05-06 13:50 | 31.81961 | 33.12003 | 34128 ft | 453 kts | 351° |
| 2026-05-06 13:51 | 31.94558 | 33.11359 | 34104 ft | 453 kts | 351° |
| 2026-05-06 13:51 | 32.07174 | 33.10724 | 34114 ft | 453 kts | 351° |
| 2026-05-06 13:52 | 32.19590 | 33.09273 | 34100 ft | 439 kts | 337° |
| 2026-05-06 13:52 | 32.25773 | 33.09046 | 34093 ft | 462 kts | 5° |
| 2026-05-06 13:52 | 32.32078 | 33.10582 | 34092 ft | 463 kts | 4° |
| 2026-05-06 13:53 | 32.44735 | 33.13231 | 34084 ft | 461 kts | 2° |
| 2026-05-06 13:53 | 32.57341 | 33.15748 | 34101 ft | 462 kts | 2° |
| 2026-05-06 13:54 | 32.70042 | 33.18344 | 34115 ft | 462 kts | 2° |
| 2026-05-06 13:54 | 32.82729 | 33.20933 | 34100 ft | 462 kts | 2° |
| 2026-05-06 13:55 | 32.95333 | 33.23506 | 34117 ft | 462 kts | 2° |
| 2026-05-06 13:55 | 33.07992 | 33.26106 | 34101 ft | 461 kts | 2° |
| 2026-05-06 13:56 | 33.20621 | 33.28712 | 34111 ft | 460 kts | 2° |
| 2026-05-06 13:56 | 33.33241 | 33.31318 | 34115 ft | 460 kts | 2° |
| 2026-05-06 13:57 | 33.45852 | 33.33927 | 34099 ft | 460 kts | 2° |
| 2026-05-06 13:57 | 33.58476 | 33.36539 | 34099 ft | 460 kts | 2° |
| 2026-05-06 13:58 | 33.64705 | 33.38590 | 34076 ft | 474 kts | 18° |
| 2026-05-06 13:58 | 33.70273 | 33.43074 | 34077 ft | 492 kts | 38° |
| 2026-05-06 13:58 | 33.80025 | 33.54649 | 34102 ft | 493 kts | 39° |
| 2026-05-06 13:59 | 33.89295 | 33.66007 | 34116 ft | 495 kts | 42° |
| 2026-05-06 13:59 | 33.93925 | 33.72093 | 34096 ft | 495 kts | 42° |
| 2026-05-06 14:00 | 33.98589 | 33.78191 | 34089 ft | 495 kts | 41° |
| 2026-05-06 14:00 | 34.03297 | 33.84246 | 34090 ft | 495 kts | 41° |
| 2026-05-06 14:01 | 34.08016 | 33.90288 | 34107 ft | 495 kts | 41° |
| 2026-05-06 14:01 | 34.12725 | 33.96353 | 34099 ft | 495 kts | 41° |
| 2026-05-06 14:02 | 34.17423 | 34.02439 | 34085 ft | 496 kts | 41° |
| 2026-05-06 14:02 | 34.22118 | 34.08543 | 33754 ft | 496 kts | 41° |
| 2026-05-06 14:03 | 34.24469 | 34.11601 | 33478 ft | 496 kts | 41° |
| 2026-05-06 14:03 | 34.26815 | 34.14651 | 33213 ft | 496 kts | 41° |
| 2026-05-06 14:03 | 34.29168 | 34.17710 | 32950 ft | 497 kts | 41° |
| 2026-05-06 14:03 | 34.31527 | 34.20781 | 32688 ft | 497 kts | 41° |
| 2026-05-06 14:04 | 34.33881 | 34.23852 | 32425 ft | 498 kts | 41° |
| 2026-05-06 14:04 | 34.36236 | 34.26935 | 32198 ft | 499 kts | 43° |
| 2026-05-06 14:04 | 34.38284 | 34.30354 | 31939 ft | 506 kts | 57° |
| 2026-05-06 14:04 | 34.39689 | 34.34284 | 31679 ft | 512 kts | 70° |
| 2026-05-06 14:05 | 34.40425 | 34.38520 | 30656 ft | 520 kts | 84° |
| 2026-05-06 14:05 | 34.40292 | 34.42916 | 29432 ft | 527 kts | 100° |
| 2026-05-06 14:05 | 34.39309 | 34.47179 | 28257 ft | 526 kts | 114° |
| 2026-05-06 14:05 | 34.37614 | 34.51069 | 27096 ft | 522 kts | 126° |
| 2026-05-06 14:06 | 34.35620 | 34.54703 | 25793 ft | 526 kts | 126° |
| 2026-05-06 14:06 | 34.33566 | 34.58387 | 24448 ft | 530 kts | 127° |
| 2026-05-06 14:06 | 34.31489 | 34.62073 | 23201 ft | 530 kts | 127° |
| 2026-05-06 14:06 | 34.29432 | 34.65710 | 22439 ft | 518 kts | 127° |
| 2026-05-06 14:07 | 34.27440 | 34.69240 | 21153 ft | 502 kts | 126° |
| 2026-05-06 14:07 | 34.25358 | 34.72516 | 20227 ft | 479 kts | 134° |
| 2026-05-06 14:07 | 34.23039 | 34.75267 | 19337 ft | 456 kts | 143° |
| 2026-05-06 14:07 | 34.20542 | 34.77488 | 18549 ft | 436 kts | 152° |
| 2026-05-06 14:08 | 34.17963 | 34.79380 | 17686 ft | 432 kts | 152° |
| 2026-05-06 14:08 | 34.15403 | 34.81257 | 16899 ft | 429 kts | 153° |
| 2026-05-06 14:08 | 34.12861 | 34.83129 | 16121 ft | 429 kts | 152° |
| 2026-05-06 14:08 | 34.10305 | 34.85014 | 15326 ft | 430 kts | 152° |
| 2026-05-06 14:09 | 34.07749 | 34.86899 | 14550 ft | 431 kts | 152° |
| 2026-05-06 14:09 | 34.05193 | 34.88781 | 13799 ft | 431 kts | 152° |
| 2026-05-06 14:09 | 34.02635 | 34.90662 | 13022 ft | 429 kts | 151° |
| 2026-05-06 14:09 | 34.00104 | 34.92522 | 12308 ft | 425 kts | 151° |
| 2026-05-06 14:10 | 33.97592 | 34.94365 | 11596 ft | 421 kts | 151° |
| 2026-05-06 14:10 | 33.95128 | 34.96175 | 11347 ft | 405 kts | 151° |
| 2026-05-06 14:10 | 33.92783 | 34.97900 | 11224 ft | 385 kts | 151° |
| 2026-05-06 14:10 | 33.90547 | 34.99540 | 11094 ft | 367 kts | 151° |
| 2026-05-06 14:11 | 33.88408 | 35.01104 | 10962 ft | 352 kts | 151° |
| 2026-05-06 14:11 | 33.86357 | 35.02599 | 10843 ft | 338 kts | 151° |
| 2026-05-06 14:11 | 33.84407 | 35.04023 | 10723 ft | 326 kts | 151° |
| 2026-05-06 14:11 | 33.82502 | 35.05415 | 10602 ft | 315 kts | 151° |
| 2026-05-06 14:12 | 33.80653 | 35.06761 | 10411 ft | 305 kts | 151° |
| 2026-05-06 14:12 | 33.78871 | 35.08057 | 10206 ft | 298 kts | 151° |
| 2026-05-06 14:12 | 33.77089 | 35.09350 | 10074 ft | 299 kts | 151° |
| 2026-05-06 14:12 | 33.75298 | 35.10652 | 9752 ft | 305 kts | 151° |
| 2026-05-06 14:13 | 33.73497 | 35.11966 | 9464 ft | 299 kts | 150° |
| 2026-05-06 14:13 | 33.72328 | 35.12821 | 9086 ft | 295 kts | 150° |
| 2026-05-06 14:13 | 33.70003 | 35.14514 | 8328 ft | 288 kts | 150° |
| 2026-05-06 14:13 | 33.68304 | 35.15747 | 7786 ft | 283 kts | 150° |
| 2026-05-06 14:14 | 33.67196 | 35.16552 | 7434 ft | 279 kts | 150° |
| 2026-05-06 14:14 | 33.65551 | 35.17747 | 6908 ft | 274 kts | 150° |
| 2026-05-06 14:14 | 33.63433 | 35.19286 | 6490 ft | 267 kts | 150° |
| 2026-05-06 14:14 | 33.61874 | 35.20483 | 6086 ft | 266 kts | 142° |
| 2026-05-06 14:15 | 33.60589 | 35.22069 | 5674 ft | 266 kts | 127° |
| 2026-05-06 14:15 | 33.59711 | 35.24022 | 5231 ft | 267 kts | 111° |
| 2026-05-06 14:15 | 33.59369 | 35.25481 | 4917 ft | 271 kts | 104° |
| 2026-05-06 14:15 | 33.58968 | 35.27704 | 4480 ft | 274 kts | 99° |
| 2026-05-06 14:16 | 33.59028 | 35.29984 | 4123 ft | 274 kts | 76° |
| 2026-05-06 14:16 | 33.59768 | 35.32052 | 3756 ft | 269 kts | 55° |
| 2026-05-06 14:16 | 33.61046 | 35.33580 | 3456 ft | 255 kts | 32° |
| 2026-05-06 14:16 | 33.62488 | 35.34671 | 3304 ft | 236 kts | 31° |
| 2026-05-06 14:17 | 33.63875 | 35.35727 | 2788 ft | 235 kts | 31° |
| 2026-05-06 14:17 | 33.65201 | 35.36744 | 2566 ft | 216 kts | 32° |
| 2026-05-06 14:17 | 33.66428 | 35.37686 | 2445 ft | 205 kts | 31° |
| 2026-05-06 14:17 | 33.67586 | 35.38571 | 2383 ft | 188 kts | 31° |
| 2026-05-06 14:18 | 33.68638 | 35.39374 | 2270 ft | 171 kts | 31° |
| 2026-05-06 14:18 | 33.69593 | 35.40102 | 2177 ft | 157 kts | 30° |
| 2026-05-06 14:18 | 33.70497 | 35.40790 | 2133 ft | 151 kts | 30° |
| 2026-05-06 14:18 | 33.71368 | 35.41452 | 2079 ft | 147 kts | 30° |
| 2026-05-06 14:19 | 33.72227 | 35.42105 | 1995 ft | 146 kts | 30° |
| 2026-05-06 14:19 | 33.73083 | 35.42755 | 1759 ft | 145 kts | 30° |
| 2026-05-06 14:19 | 33.73933 | 35.43401 | 1568 ft | 144 kts | 30° |
| 2026-05-06 14:19 | 33.74777 | 35.44045 | 1369 ft | 144 kts | 31° |
| 2026-05-06 14:20 | 33.75621 | 35.44688 | 1161 ft | 144 kts | 30° |
| 2026-05-06 14:20 | 33.76470 | 35.45317 | 997 ft | 143 kts | 29° |
| 2026-05-06 14:20 | 33.77333 | 35.45923 | 786 ft | 143 kts | 26° |
| 2026-05-06 14:20 | 33.78188 | 35.46528 | 564 ft | 142 kts | 37° |
| 2026-05-06 14:21 | 33.78908 | 35.47355 | 293 ft | 143 kts | 39° |
| 2026-05-06 14:21 | 33.79714 | 35.48023 | 66 ft | 140 kts | 30° |
| 2026-05-06 14:21 | 33.80496 | 35.48617 | 18 ft | 115 kts | 28° |
| 2026-05-06 14:21 | 33.81032 | 35.49019 | 14 ft | 70 kts | 34° |
| 2026-05-06 14:22 | 33.81410 | 35.49317 | 18 ft | 62 kts | 33° |
| 2026-05-06 14:22 | 33.81705 | 35.49541 | 18 ft | 31 kts | 24° |
| 2026-05-06 14:22 | 33.81919 | 35.49595 | 18 ft | 28 kts | 4° |
| 2026-05-06 14:22 | 33.82075 | 35.49605 | 18 ft | 22 kts | 4° |
| 2026-05-06 14:23 | 33.82195 | 35.49595 | 19 ft | 18 kts | 324° |
| 2026-05-06 14:23 | 33.82251 | 35.49512 | 18 ft | 11 kts | 312° |
| 2026-05-06 14:23 | 33.82312 | 35.49512 | 18 ft | 7 kts | 17° |
| 2026-05-06 14:23 | 33.82346 | 35.49476 | 18 ft | 8 kts | 302° |
| 2026-05-06 14:24 | 33.82370 | 35.49441 | 19 ft | 0 kts | 311° |
| 2026-05-06 14:24 | 33.82371 | 35.49440 | 19 ft | 0 kts | 311° |